Time;durP1;ratioP1;P1;durP2;ratioP2;P2;SDS_P1;SDS_P2;PMS_P1;PMS_P2;Temp;Humidity;BMP_temperature;BMP_pressure;BME280_temperature;BME280_humidity;BME280_pressure;Samples;Min_cycle;Max_cycle;Signal;HPM_P1;HPM_P2
2021/03/13 00:01:19;;;;;;;27.27;4.23;;;;;;;;;;5043714;27;38911;-80
2021/03/13 00:03:46;;;;;;;25.27;4.57;;;;;;;;;;5050468;27;37768;-78
2021/03/13 00:06:13;;;;;;;20.17;3.83;;;;;;;;;;5046912;27;40220;-77
2021/03/13 00:08:39;;;;;;;24.43;3.87;;;;;;;;;;5055366;27;38622;-78
2021/03/13 00:11:07;;;;;;;14.20;3.60;;;;;;;;;;5057704;27;38751;-77
2021/03/13 00:13:34;;;;;;;27.13;4.63;;;;;;;;;;5048130;28;38339;-77
2021/03/13 00:16:00;;;;;;;14.47;3.63;;;;;;;;;;5047485;27;38180;-76
2021/03/13 00:18:27;;;;;;;23.03;3.50;;;;;;;;;;5048581;27;37986;-77
2021/03/13 00:20:53;;;;;;;22.03;3.90;;;;;;;;;;5046534;28;39489;-80
2021/03/13 00:23:19;;;;;;;19.57;3.57;;;;;;;;;;5041877;27;36740;-80
2021/03/13 00:25:46;;;;;;;16.70;3.63;;;;;;;;;;5047191;27;40552;-80
2021/03/13 00:28:12;;;;;;;19.83;3.47;;;;;;;;;;5044229;27;38617;-77
2021/03/13 00:30:42;;;;;;;12.03;3.20;;;;;;;;;;5041910;27;38049;-85
2021/03/13 00:33:12;;;;;;;21.43;4.60;;;;;;;;;;5049640;27;38344;-77
2021/03/13 00:35:39;;;;;;;26.23;3.93;;;;;;;;;;5056624;27;39733;-76
2021/03/13 00:38:05;;;;;;;16.50;4.00;;;;;;;;;;5039012;28;39289;-78
2021/03/13 00:40:32;;;;;;;21.37;4.40;;;;;;;;;;5043168;28;38802;-79
2021/03/13 00:42:59;;;;;;;16.57;4.03;;;;;;;;;;5054652;28;36859;-80
2021/03/13 00:45:27;;;;;;;20.30;4.20;;;;;;;;;;5052070;27;39104;-79
2021/03/13 00:47:53;;;;;;;16.33;4.83;;;;;;;;;;5052377;27;40050;-82
2021/03/13 00:50:21;;;;;;;18.10;3.30;;;;;;;;;;5044677;27;38204;-79
2021/03/13 00:52:48;;;;;;;13.67;3.33;;;;;;;;;;5053480;27;38057;-81
2021/03/13 00:55:14;;;;;;;18.07;4.13;;;;;;;;;;5048026;27;38770;-77
2021/03/13 00:57:41;;;;;;;21.90;3.37;;;;;;;;;;5044897;28;38910;-80
2021/03/13 01:00:09;;;;;;;17.17;3.03;;;;;;;;;;5044793;27;38041;-81
2021/03/13 01:02:35;;;;;;;13.90;2.37;;;;;;;;;;5051608;27;37256;-78
2021/03/13 01:05:02;;;;;;;17.53;3.10;;;;;;;;;;5043624;28;38657;-80
2021/03/13 01:07:28;;;;;;;12.97;2.40;;;;;;;;;;5043561;28;47536;-83
2021/03/13 01:09:55;;;;;;;16.60;2.50;;;;;;;;;;5039780;28;38915;-78
2021/03/13 01:12:21;;;;;;;13.67;2.30;;;;;;;;;;5045111;28;37626;-84
2021/03/13 01:14:47;;;;;;;17.30;2.77;;;;;;;;;;5041446;28;40299;-80
2021/03/13 01:17:14;;;;;;;13.50;2.30;;;;;;;;;;5054036;27;39744;-79
2021/03/13 01:19:41;;;;;;;12.40;2.60;;;;;;;;;;5039856;27;39829;-82
2021/03/13 01:22:07;;;;;;;20.33;4.03;;;;;;;;;;5052557;27;36320;-79
2021/03/13 01:24:34;;;;;;;13.00;3.47;;;;;;;;;;5050513;27;37779;-88
2021/03/13 01:27:00;;;;;;;14.30;4.13;;;;;;;;;;5040071;27;38763;-79
2021/03/13 01:29:27;;;;;;;22.90;5.63;;;;;;;;;;5043138;27;41223;-81
2021/03/13 01:31:53;;;;;;;17.90;4.80;;;;;;;;;;5055442;27;37206;-85
2021/03/13 01:34:19;;;;;;;19.03;5.17;;;;;;;;;;5045992;28;39354;-79
2021/03/13 01:36:46;;;;;;;21.93;6.77;;;;;;;;;;5045706;28;38626;-78
2021/03/13 01:39:12;;;;;;;20.17;5.93;;;;;;;;;;5051321;28;36777;-82
2021/03/13 01:41:39;;;;;;;23.60;8.50;;;;;;;;;;5052583;28;37528;-82
2021/03/13 01:44:05;;;;;;;18.87;6.87;;;;;;;;;;5045923;28;37871;-78
2021/03/13 01:46:32;;;;;;;18.00;6.00;;;;;;;;;;5019290;28;39245;-80
2021/03/13 01:48:59;;;;;;;21.73;4.80;;;;;;;;;;5026469;27;39041;-81
2021/03/13 01:51:25;;;;;;;18.33;4.67;;;;;;;;;;5022263;27;35799;-84
2021/03/13 01:53:52;;;;;;;16.73;4.60;;;;;;;;;;5053702;28;38848;-84
2021/03/13 01:56:18;;;;;;;21.67;4.63;;;;;;;;;;5024613;28;40339;-80
2021/03/13 01:58:45;;;;;;;13.80;5.00;;;;;;;;;;5023671;28;38977;-89
2021/03/13 02:01:12;;;;;;;15.70;5.10;;;;;;;;;;5041419;28;35890;-88
2021/03/13 02:03:42;;;;;;;17.47;5.00;;;;;;;;;;5051532;27;37939;-82
2021/03/13 02:06:08;;;;;;;12.10;4.27;;;;;;;;;;5042799;27;39067;-85
2021/03/13 02:08:37;;;;;;;11.07;4.20;;;;;;;;;;5047303;28;38363;-86
2021/03/13 02:11:10;;;;;;;14.60;3.67;;;;;;;;;;5052872;28;36905;-86
2021/03/13 02:13:51;;;;;;;17.30;4.03;;;;;;;;;;5044765;27;39141;-89
2021/03/13 02:16:31;;;;;;;9.93;3.20;;;;;;;;;;5044956;28;39973;-83
2021/03/13 02:19:16;;;;;;;16.57;3.67;;;;;;;;;;5062543;27;37545;-84
2021/03/13 02:21:47;;;;;;;15.73;3.70;;;;;;;;;;5050907;28;48472;-83
2021/03/13 02:24:20;;;;;;;15.90;3.30;;;;;;;;;;5051825;27;38829;-80
2021/03/13 02:27:04;;;;;;;16.20;3.63;;;;;;;;;;5043204;27;38969;-79
2021/03/13 02:29:40;;;;;;;9.20;4.07;;;;;;;;;;5031262;28;47092;-83
2021/03/13 02:32:10;;;;;;;13.23;4.13;;;;;;;;;;5047856;28;36660;-90
2021/03/13 02:34:38;;;;;;;13.20;4.53;;;;;;;;;;5044919;28;39732;-85
2021/03/13 02:37:06;;;;;;;12.47;3.80;;;;;;;;;;5019448;28;40468;-82
2021/03/13 02:39:35;;;;;;;12.03;4.47;;;;;;;;;;5023293;28;39329;-77
2021/03/13 02:42:03;;;;;;;15.53;3.80;;;;;;;;;;5051584;28;37094;-78
2021/03/13 02:44:30;;;;;;;10.50;3.90;;;;;;;;;;5040424;28;46979;-82
2021/03/13 02:46:56;;;;;;;19.67;4.07;;;;;;;;;;5042969;28;39263;-85
2021/03/13 02:49:24;;;;;;;15.60;4.00;;;;;;;;;;5043817;28;38875;-82
2021/03/13 02:51:50;;;;;;;11.73;3.63;;;;;;;;;;5042984;28;38641;-79
2021/03/13 02:54:17;;;;;;;14.40;3.73;;;;;;;;;;5026199;28;38876;-81
2021/03/13 02:56:44;;;;;;;14.10;3.23;;;;;;;;;;5019837;28;39049;-80
2021/03/13 02:59:11;;;;;;;12.87;3.30;;;;;;;;;;5030666;28;39056;-85
2021/03/13 03:01:38;;;;;;;16.63;3.70;;;;;;;;;;5024077;28;36720;-86
2021/03/13 03:04:07;;;;;;;16.20;3.40;;;;;;;;;;5023628;28;39463;-79
2021/03/13 03:06:35;;;;;;;15.43;3.50;;;;;;;;;;5036641;28;38778;-81
2021/03/13 03:09:01;;;;;;;16.07;3.63;;;;;;;;;;5040678;28;39544;-81
2021/03/13 03:11:28;;;;;;;13.23;3.10;;;;;;;;;;5030395;28;48650;-82
2021/03/13 03:13:54;;;;;;;15.37;3.43;;;;;;;;;;5031885;28;37795;-79
2021/03/13 03:16:22;;;;;;;11.47;2.80;;;;;;;;;;5025003;28;38517;-85
2021/03/13 03:18:50;;;;;;;10.20;2.70;;;;;;;;;;5036523;28;39863;-84
2021/03/13 03:21:18;;;;;;;10.40;2.57;;;;;;;;;;5033126;28;37503;-87
2021/03/13 03:23:46;;;;;;;8.50;2.77;;;;;;;;;;5029026;28;39960;-86
2021/03/13 03:26:12;;;;;;;13.87;2.60;;;;;;;;;;5017302;28;37452;-78
2021/03/13 03:28:39;;;;;;;8.90;2.57;;;;;;;;;;5013758;28;38259;-84
2021/03/13 03:31:05;;;;;;;10.47;2.63;;;;;;;;;;5014423;28;37791;-87
2021/03/13 03:33:32;;;;;;;16.53;3.90;;;;;;;;;;5027751;28;39785;-79
2021/03/13 03:35:58;;;;;;;13.10;2.67;;;;;;;;;;5035781;28;39106;-80
2021/03/13 03:38:25;;;;;;;11.03;3.07;;;;;;;;;;5030581;28;37036;-79
2021/03/13 03:40:51;;;;;;;8.23;2.60;;;;;;;;;;5037834;28;37673;-79
2021/03/13 03:43:31;;;;;;;13.10;2.93;;;;;;;;;;5038838;28;39464;-79
2021/03/13 03:46:00;;;;;;;14.57;3.17;;;;;;;;;;5023922;28;38783;-80
2021/03/13 03:48:26;;;;;;;11.13;2.57;;;;;;;;;;5035225;28;37568;-86
2021/03/13 03:50:53;;;;;;;13.80;4.43;;;;;;;;;;5043433;28;38329;-84
2021/03/13 03:53:24;;;;;;;16.43;3.67;;;;;;;;;;5043130;27;40788;-86
2021/03/13 03:55:52;;;;;;;9.83;3.27;;;;;;;;;;5027315;28;39593;-82
2021/03/13 03:58:27;;;;;;;14.37;3.60;;;;;;;;;;5040518;28;37937;-83
2021/03/13 04:00:54;;;;;;;14.23;3.03;;;;;;;;;;5023314;28;35643;-84
2021/03/13 04:03:22;;;;;;;11.23;2.80;;;;;;;;;;5025058;28;37884;-81
2021/03/13 04:05:49;;;;;;;10.30;2.80;;;;;;;;;;5028004;28;39065;-81
2021/03/13 04:08:16;;;;;;;9.27;2.47;;;;;;;;;;5032594;28;39700;-79
2021/03/13 04:10:45;;;;;;;8.77;3.07;;;;;;;;;;5038759;27;37864;-82
2021/03/13 04:13:12;;;;;;;9.93;2.70;;;;;;;;;;5033171;28;39632;-76
2021/03/13 04:15:39;;;;;;;14.67;2.83;;;;;;;;;;5024988;28;40219;-83
2021/03/13 04:18:06;;;;;;;9.40;2.33;;;;;;;;;;5033266;28;39079;-84
2021/03/13 04:20:33;;;;;;;16.43;3.17;;;;;;;;;;5025314;28;36826;-79
2021/03/13 04:23:00;;;;;;;22.90;3.37;;;;;;;;;;5032519;28;37933;-86
2021/03/13 04:25:27;;;;;;;18.80;3.50;;;;;;;;;;5041390;28;47557;-78
2021/03/13 04:27:53;;;;;;;18.63;2.97;;;;;;;;;;5040323;28;38524;-86
2021/03/13 04:30:20;;;;;;;12.80;3.07;;;;;;;;;;5044372;28;38428;-88
2021/03/13 04:32:47;;;;;;;16.87;3.03;;;;;;;;;;5057382;28;39766;-86
2021/03/13 04:35:15;;;;;;;12.13;2.77;;;;;;;;;;5051242;28;38940;-88
2021/03/13 04:37:42;;;;;;;17.87;2.93;;;;;;;;;;5029720;28;38151;-83
2021/03/13 04:40:09;;;;;;;11.63;2.63;;;;;;;;;;5054757;28;35889;-88
2021/03/13 04:42:36;;;;;;;11.97;2.63;;;;;;;;;;5047877;28;40741;-87
2021/03/13 04:45:03;;;;;;;15.00;3.37;;;;;;;;;;5035533;28;38529;-89
2021/03/13 04:47:29;;;;;;;14.50;2.80;;;;;;;;;;5038182;28;40127;-87
2021/03/13 04:49:56;;;;;;;10.70;2.73;;;;;;;;;;5033098;28;37548;-88
2021/03/13 04:52:22;;;;;;;14.90;2.93;;;;;;;;;;5020740;28;39734;-87
2021/03/13 04:54:49;;;;;;;12.33;3.13;;;;;;;;;;5025676;28;39687;-86
2021/03/13 04:57:16;;;;;;;11.00;3.03;;;;;;;;;;5026822;28;38446;-82
2021/03/13 04:59:42;;;;;;;12.50;2.60;;;;;;;;;;5024452;28;38118;-87
2021/03/13 05:02:09;;;;;;;10.37;2.30;;;;;;;;;;5036626;28;37728;-82
2021/03/13 05:04:35;;;;;;;12.70;1.87;;;;;;;;;;5033559;28;37467;-84
2021/03/13 05:07:01;;;;;;;11.23;2.00;;;;;;;;;;5056560;28;38490;-78
2021/03/13 05:09:28;;;;;;;10.87;1.53;;;;;;;;;;5048895;28;35916;-83
2021/03/13 05:11:54;;;;;;;13.60;2.07;;;;;;;;;;5068764;28;38984;-82
2021/03/13 05:14:21;;;;;;;17.00;2.33;;;;;;;;;;5074723;27;38158;-81
2021/03/13 05:16:47;;;;;;;15.57;2.10;;;;;;;;;;5061782;28;39191;-79
2021/03/13 05:19:13;;;;;;;17.07;1.87;;;;;;;;;;5048779;28;36941;-80
2021/03/13 05:21:40;;;;;;;15.80;2.30;;;;;;;;;;5060107;28;38232;-81
2021/03/13 05:24:06;;;;;;;14.17;2.20;;;;;;;;;;5075537;27;37913;-79
2021/03/13 05:26:33;;;;;;;12.50;2.03;;;;;;;;;;5044292;28;38579;-80
2021/03/13 05:28:59;;;;;;;14.93;2.30;;;;;;;;;;5071432;28;35863;-79
2021/03/13 05:31:26;;;;;;;15.57;3.47;;;;;;;;;;5061427;27;40539;-76
2021/03/13 05:33:52;;;;;;;16.60;3.63;;;;;;;;;;5054390;27;39008;-83
2021/03/13 05:36:19;;;;;;;13.13;3.50;;;;;;;;;;5023153;27;37351;-81
2021/03/13 05:38:45;;;;;;;13.07;2.93;;;;;;;;;;5020323;28;36007;-78
2021/03/13 05:41:12;;;;;;;19.80;2.20;;;;;;;;;;5026287;28;39544;-78
2021/03/13 05:43:39;;;;;;;11.37;1.97;;;;;;;;;;5025273;28;38625;-78
2021/03/13 05:46:06;;;;;;;15.10;2.30;;;;;;;;;;5018577;28;39042;-77
2021/03/13 05:48:34;;;;;;;13.63;2.70;;;;;;;;;;5030299;28;38188;-78
2021/03/13 05:51:02;;;;;;;16.67;3.03;;;;;;;;;;5027289;28;38460;-79
2021/03/13 05:53:29;;;;;;;14.67;2.33;;;;;;;;;;5044291;28;47273;-78
2021/03/13 05:55:55;;;;;;;12.83;2.60;;;;;;;;;;5042820;28;39294;-82
2021/03/13 05:58:22;;;;;;;14.43;2.90;;;;;;;;;;5031685;28;36758;-79
2021/03/13 06:00:49;;;;;;;17.67;2.83;;;;;;;;;;5011927;28;40234;-77
2021/03/13 06:03:16;;;;;;;13.57;2.50;;;;;;;;;;5052745;27;39150;-77
2021/03/13 06:05:46;;;;;;;13.90;2.53;;;;;;;;;;5051723;27;38685;-82
2021/03/13 06:08:15;;;;;;;19.73;2.67;;;;;;;;;;5051184;28;37706;-77
2021/03/13 06:10:42;;;;;;;17.90;2.50;;;;;;;;;;5050182;27;40560;-78
2021/03/13 06:13:10;;;;;;;15.10;2.30;;;;;;;;;;5039266;28;38719;-78
2021/03/13 06:15:36;;;;;;;18.80;2.67;;;;;;;;;;5047940;28;39365;-76
2021/03/13 06:18:03;;;;;;;17.03;3.03;;;;;;;;;;5051558;28;37030;-77
2021/03/13 06:20:33;;;;;;;19.80;2.63;;;;;;;;;;5049367;28;39805;-76
2021/03/13 06:23:17;;;;;;;23.37;3.43;;;;;;;;;;5043828;28;39982;-78
2021/03/13 06:25:45;;;;;;;16.27;2.23;;;;;;;;;;5040451;28;48564;-78
2021/03/13 06:28:19;;;;;;;27.90;4.40;;;;;;;;;;5051898;27;38482;-76
2021/03/13 06:30:52;;;;;;;26.07;3.60;;;;;;;;;;5042620;27;39866;-78
2021/03/13 06:33:20;;;;;;;18.93;3.00;;;;;;;;;;5049648;28;38489;-78
2021/03/13 06:35:47;;;;;;;20.47;3.23;;;;;;;;;;5023197;28;38363;-75
2021/03/13 06:38:18;;;;;;;20.57;4.07;;;;;;;;;;5015197;28;37761;-76
2021/03/13 06:40:45;;;;;;;21.60;3.97;;;;;;;;;;5031645;28;37693;-78
2021/03/13 06:43:19;;;;;;;26.03;4.70;;;;;;;;;;5024428;27;39230;-75
2021/03/13 06:46:04;;;;;;;21.33;3.23;;;;;;;;;;5018304;28;38171;-76
2021/03/13 06:48:32;;;;;;;23.53;3.60;;;;;;;;;;5025421;28;49147;-77
2021/03/13 06:51:28;;;;;;;25.23;4.67;;;;;;;;;;5018541;28;39372;-78
2021/03/13 06:54:01;;;;;;;22.17;4.63;;;;;;;;;;5000654;28;47809;-76
2021/03/13 06:56:28;;;;;;;32.77;5.10;;;;;;;;;;5021581;28;48991;-79
2021/03/13 06:58:55;;;;;;;33.40;4.50;;;;;;;;;;5030680;28;35766;-78
2021/03/13 07:01:28;;;;;;;33.67;4.70;;;;;;;;;;5025706;28;39990;-77
2021/03/13 07:03:55;;;;;;;26.20;5.00;;;;;;;;;;5032564;28;38690;-76
2021/03/13 07:06:22;;;;;;;40.13;5.67;;;;;;;;;;5038706;28;38650;-76
2021/03/13 07:08:50;;;;;;;29.07;5.13;;;;;;;;;;5042073;27;37205;-76
2021/03/13 07:11:18;;;;;;;38.20;5.50;;;;;;;;;;5068219;27;37770;-76
2021/03/13 07:13:45;;;;;;;46.87;6.27;;;;;;;;;;5043487;28;38817;-79
2021/03/13 07:16:22;;;;;;;33.07;5.20;;;;;;;;;;5046640;27;41157;-79
2021/03/13 07:18:49;;;;;;;40.63;6.50;;;;;;;;;;5037799;28;37155;-75
2021/03/13 07:21:16;;;;;;;31.13;4.83;;;;;;;;;;5046632;28;40898;-76
2021/03/13 07:23:42;;;;;;;40.07;6.57;;;;;;;;;;5041714;28;38809;-78
2021/03/13 07:26:14;;;;;;;40.70;5.80;;;;;;;;;;5039601;28;38922;-75
2021/03/13 07:28:41;;;;;;;29.87;4.03;;;;;;;;;;5050948;27;37017;-75
2021/03/13 07:31:09;;;;;;;32.97;5.03;;;;;;;;;;5037674;28;38108;-75
2021/03/13 07:33:39;;;;;;;37.63;5.43;;;;;;;;;;5047012;27;38319;-75
2021/03/13 07:36:14;;;;;;;27.67;5.23;;;;;;;;;;5029096;28;39577;-77
2021/03/13 07:38:41;;;;;;;23.70;4.80;;;;;;;;;;5028045;28;37407;-75
2021/03/13 07:41:12;;;;;;;31.80;4.63;;;;;;;;;;5018725;27;39062;-79
2021/03/13 07:43:42;;;;;;;32.80;4.50;;;;;;;;;;5053996;27;39851;-77
2021/03/13 07:46:09;;;;;;;30.60;4.97;;;;;;;;;;5019466;28;37972;-76
2021/03/13 07:48:36;;;;;;;31.00;4.33;;;;;;;;;;5041233;28;37322;-75
2021/03/13 07:51:03;;;;;;;25.10;5.60;;;;;;;;;;5053798;28;39429;-80
2021/03/13 07:53:35;;;;;;;30.20;4.63;;;;;;;;;;5047403;28;38708;-76
2021/03/13 07:56:03;;;;;;;28.80;5.10;;;;;;;;;;5042449;28;37354;-77
2021/03/13 07:58:30;;;;;;;29.53;5.03;;;;;;;;;;5034231;28;48942;-77
2021/03/13 08:00:58;;;;;;;26.57;4.77;;;;;;;;;;5023441;28;39175;-75
2021/03/13 08:03:28;;;;;;;25.77;4.13;;;;;;;;;;5024849;28;39701;-75
2021/03/13 08:05:59;;;;;;;27.20;4.67;;;;;;;;;;5032154;28;38457;-77
2021/03/13 08:08:35;;;;;;;27.57;5.20;;;;;;;;;;5054132;28;37766;-74
2021/03/13 08:11:02;;;;;;;30.77;4.17;;;;;;;;;;5043699;27;40075;-76
2021/03/13 08:13:29;;;;;;;21.20;4.63;;;;;;;;;;5055967;27;39934;-76
2021/03/13 08:16:05;;;;;;;43.93;5.30;;;;;;;;;;5047249;27;37828;-76
2021/03/13 08:18:50;;;;;;;34.57;5.57;;;;;;;;;;5043166;28;49272;-78
2021/03/13 08:21:20;;;;;;;37.30;5.80;;;;;;;;;;5036412;27;39742;-76
2021/03/13 08:23:47;;;;;;;38.93;6.93;;;;;;;;;;5026036;28;38834;-75
2021/03/13 08:26:14;;;;;;;40.73;6.43;;;;;;;;;;5018260;27;38264;-74
2021/03/13 08:28:46;;;;;;;38.70;6.47;;;;;;;;;;5022135;28;39285;-75
2021/03/13 08:31:25;;;;;;;48.63;6.40;;;;;;;;;;5042080;28;37974;-76
2021/03/13 08:33:55;;;;;;;40.57;7.20;;;;;;;;;;5018882;28;38026;-79
2021/03/13 08:36:23;;;;;;;43.40;7.20;;;;;;;;;;5013102;28;37373;-76
2021/03/13 08:38:55;;;;;;;50.27;9.07;;;;;;;;;;5022455;28;37077;-78
2021/03/13 08:41:40;;;;;;;36.28;6.97;;;;;;;;;;5014114;28;39189;-76
2021/03/13 08:44:08;;;;;;;36.87;6.73;;;;;;;;;;5018247;28;39434;-77
2021/03/13 08:46:53;;;;;;;38.67;7.67;;;;;;;;;;5019347;28;37327;-77
2021/03/13 08:49:26;;;;;;;49.17;8.50;;;;;;;;;;5050432;28;35675;-75
2021/03/13 08:52:04;;;;;;;48.40;7.87;;;;;;;;;;5046282;28;38820;-76
2021/03/13 08:54:40;;;;;;;40.67;7.73;;;;;;;;;;5069111;27;47175;-76
2021/03/13 08:57:09;;;;;;;39.67;7.77;;;;;;;;;;5026849;28;38412;-75
2021/03/13 08:59:37;;;;;;;44.03;7.97;;;;;;;;;;5024950;28;36345;-77
2021/03/13 09:02:03;;;;;;;41.50;8.00;;;;;;;;;;5053298;28;38812;-79
2021/03/13 09:04:30;;;;;;;44.93;8.20;;;;;;;;;;5044149;28;38833;-80
2021/03/13 09:06:57;;;;;;;44.10;8.13;;;;;;;;;;5049131;28;38071;-75
2021/03/13 09:09:25;;;;;;;41.77;7.83;;;;;;;;;;5051554;27;35531;-78
2021/03/13 09:11:56;;;;;;;41.27;8.20;;;;;;;;;;5029150;28;37929;-76
2021/03/13 09:14:22;;;;;;;38.53;7.00;;;;;;;;;;5022725;28;39202;-75
2021/03/13 09:16:49;;;;;;;36.00;6.93;;;;;;;;;;5026081;28;38805;-78
2021/03/13 09:19:15;;;;;;;36.73;6.87;;;;;;;;;;5026667;28;36824;-77
2021/03/13 09:22:02;;;;;;;30.20;5.70;;;;;;;;;;5021232;28;38695;-77
2021/03/13 09:24:29;;;;;;;42.03;5.83;;;;;;;;;;5015952;28;47275;-78
2021/03/13 09:26:56;;;;;;;25.00;4.20;;;;;;;;;;5043808;28;37214;-76
2021/03/13 09:29:29;;;;;;;23.70;4.77;;;;;;;;;;5042790;28;35389;-74
2021/03/13 09:32:05;;;;;;;27.05;4.32;;;;;;;;;;5039554;28;38720;-77
2021/03/13 09:34:33;;;;;;;28.23;4.50;;;;;;;;;;5041521;28;49076;-75
2021/03/13 09:37:08;;;;;;;31.50;4.77;;;;;;;;;;5042185;28;37524;-78
2021/03/13 09:39:35;;;;;;;25.83;4.73;;;;;;;;;;5039256;28;48688;-76
2021/03/13 09:42:06;;;;;;;33.33;5.73;;;;;;;;;;5037089;28;37329;-75
2021/03/13 09:44:33;;;;;;;24.23;5.50;;;;;;;;;;5030902;28;47879;-76
2021/03/13 09:46:59;;;;;;;22.00;4.40;;;;;;;;;;5040825;28;39065;-76
2021/03/13 09:49:26;;;;;;;23.73;4.50;;;;;;;;;;5053972;28;35819;-75
2021/03/13 09:51:53;;;;;;;23.23;4.47;;;;;;;;;;5044444;28;39434;-76
2021/03/13 09:54:19;;;;;;;31.70;4.90;;;;;;;;;;5056260;27;38621;-75
2021/03/13 09:56:46;;;;;;;30.37;5.57;;;;;;;;;;5010739;28;39215;-75
2021/03/13 09:59:12;;;;;;;33.47;5.47;;;;;;;;;;5016812;28;36876;-75
2021/03/13 10:01:39;;;;;;;33.33;7.60;;;;;;;;;;5013307;28;38861;-74
2021/03/13 10:04:06;;;;;;;28.90;5.07;;;;;;;;;;5015217;28;38499;-74
2021/03/13 10:06:32;;;;;;;37.47;5.53;;;;;;;;;;5017055;28;38211;-74
2021/03/13 10:08:59;;;;;;;27.23;4.73;;;;;;;;;;5021901;28;36857;-73
2021/03/13 10:11:38;;;;;;;36.23;6.27;;;;;;;;;;5016445;28;37656;-75
2021/03/13 10:14:04;;;;;;;34.27;4.57;;;;;;;;;;5045074;28;39770;-78
2021/03/13 10:16:32;;;;;;;28.20;5.10;;;;;;;;;;5041775;28;38976;-74
2021/03/13 10:18:58;;;;;;;24.33;4.43;;;;;;;;;;5061955;27;38307;-74
2021/03/13 10:21:25;;;;;;;36.80;6.17;;;;;;;;;;5055375;28;38887;-76
2021/03/13 10:23:58;;;;;;;30.17;5.13;;;;;;;;;;5039003;28;39950;-76
2021/03/13 10:26:26;;;;;;;25.73;4.53;;;;;;;;;;5046844;27;39471;-76
2021/03/13 10:28:53;;;;;;;29.70;5.63;;;;;;;;;;5011179;28;36965;-77
2021/03/13 10:31:22;;;;;;;31.07;6.83;;;;;;;;;;5011895;28;40605;-74
2021/03/13 10:33:49;;;;;;;31.33;6.00;;;;;;;;;;5018259;28;39949;-74
2021/03/13 10:36:16;;;;;;;33.27;5.77;;;;;;;;;;5018074;28;38738;-76
2021/03/13 10:38:53;;;;;;;35.50;5.33;;;;;;;;;;5021073;28;36285;-74
2021/03/13 10:41:22;;;;;;;27.93;5.20;;;;;;;;;;5016850;28;40310;-74
2021/03/13 10:43:49;;;;;;;27.23;4.67;;;;;;;;;;5021243;28;40270;-75
2021/03/13 10:46:18;;;;;;;30.77;4.93;;;;;;;;;;5016221;28;39501;-74
2021/03/13 10:48:51;;;;;;;25.13;4.67;;;;;;;;;;5015958;28;37031;-74
2021/03/13 10:51:46;;;;;;;31.97;4.97;;;;;;;;;;5016594;28;39046;-75
2021/03/13 10:54:23;;;;;;;18.33;3.70;;;;;;;;;;5019969;28;39088;-74
2021/03/13 10:56:50;;;;;;;22.57;3.83;;;;;;;;;;5012846;28;40946;-76
2021/03/13 10:59:16;;;;;;;16.15;3.63;;;;;;;;;;5018064;28;36617;-74
2021/03/13 11:01:46;;;;;;;17.23;3.43;;;;;;;;;;5015427;28;39538;-74
2021/03/13 11:04:13;;;;;;;21.33;4.40;;;;;;;;;;5017435;28;39541;-74
2021/03/13 11:06:40;;;;;;;23.03;5.10;;;;;;;;;;5015067;28;40118;-75
2021/03/13 11:09:11;;;;;;;22.83;4.97;;;;;;;;;;5036850;28;37881;-75
2021/03/13 11:11:38;;;;;;;27.93;3.90;;;;;;;;;;5035043;28;39681;-75
2021/03/13 11:14:07;;;;;;;21.50;4.17;;;;;;;;;;5045501;28;39321;-76
2021/03/13 11:16:34;;;;;;;18.30;4.67;;;;;;;;;;5017029;28;39457;-76
2021/03/13 11:19:00;;;;;;;24.67;3.33;;;;;;;;;;5022644;28;36751;-79
2021/03/13 11:21:27;;;;;;;14.10;2.20;;;;;;;;;;5023780;28;40103;-76
2021/03/13 11:23:54;;;;;;;12.37;2.13;;;;;;;;;;5051797;28;38964;-76
2021/03/13 11:26:21;;;;;;;10.10;1.87;;;;;;;;;;5038814;28;40114;-76
2021/03/13 11:28:47;;;;;;;17.43;3.80;;;;;;;;;;5048453;27;38409;-75
2021/03/13 11:31:15;;;;;;;19.83;2.83;;;;;;;;;;5020684;28;40773;-75
2021/03/13 11:33:41;;;;;;;19.70;2.83;;;;;;;;;;5052399;28;38937;-76
2021/03/13 11:36:08;;;;;;;20.27;3.53;;;;;;;;;;5034341;28;37214;-75
2021/03/13 11:38:36;;;;;;;11.63;2.10;;;;;;;;;;5028485;28;36663;-76
2021/03/13 11:41:03;;;;;;;19.70;2.77;;;;;;;;;;5021685;28;38952;-75
2021/03/13 11:43:30;;;;;;;15.77;2.50;;;;;;;;;;5011452;28;37339;-75
2021/03/13 11:45:57;;;;;;;22.83;2.53;;;;;;;;;;5019222;28;40230;-76
2021/03/13 11:48:23;;;;;;;16.23;2.60;;;;;;;;;;5057857;28;36140;-77
2021/03/13 11:50:50;;;;;;;15.73;2.40;;;;;;;;;;5053959;27;37656;-77
2021/03/13 11:53:18;;;;;;;15.57;2.87;;;;;;;;;;5047446;27;37720;-76
2021/03/13 11:55:45;;;;;;;11.27;2.30;;;;;;;;;;5039418;28;38119;-76
2021/03/13 11:58:11;;;;;;;18.87;3.77;;;;;;;;;;5048368;27;36064;-76
2021/03/13 12:00:38;;;;;;;16.80;2.27;;;;;;;;;;5042932;28;38617;-76
2021/03/13 12:03:05;;;;;;;16.50;3.87;;;;;;;;;;5043452;28;38857;-74
2021/03/13 12:05:31;;;;;;;17.23;2.30;;;;;;;;;;5044593;28;37272;-75
2021/03/13 12:07:57;;;;;;;15.60;2.60;;;;;;;;;;5035941;28;35513;-74
2021/03/13 12:10:24;;;;;;;15.37;2.53;;;;;;;;;;5034647;28;37835;-75
2021/03/13 12:12:51;;;;;;;13.93;2.17;;;;;;;;;;5045716;28;38815;-75
2021/03/13 12:15:18;;;;;;;11.10;2.53;;;;;;;;;;5054149;28;36776;-75
2021/03/13 12:17:44;;;;;;;15.83;2.63;;;;;;;;;;5036419;28;37322;-73
2021/03/13 12:20:11;;;;;;;16.23;3.17;;;;;;;;;;5034947;28;37698;-73
2021/03/13 12:22:38;;;;;;;13.17;1.90;;;;;;;;;;5029372;28;39126;-76
2021/03/13 12:25:05;;;;;;;12.23;2.00;;;;;;;;;;5048525;28;37207;-73
2021/03/13 12:27:31;;;;;;;12.27;2.13;;;;;;;;;;5047083;27;46885;-74
2021/03/13 12:29:58;;;;;;;15.33;2.23;;;;;;;;;;5027158;28;40473;-75
2021/03/13 12:32:25;;;;;;;11.07;2.63;;;;;;;;;;5048499;27;40233;-75
2021/03/13 12:34:51;;;;;;;18.53;3.10;;;;;;;;;;5061691;28;37216;-76
2021/03/13 12:37:18;;;;;;;13.83;2.60;;;;;;;;;;5058947;27;37044;-74
2021/03/13 12:39:44;;;;;;;13.03;2.53;;;;;;;;;;5057782;27;40862;-75
2021/03/13 12:42:11;;;;;;;13.47;2.67;;;;;;;;;;5039264;28;39171;-75
2021/03/13 12:44:37;;;;;;;17.00;3.00;;;;;;;;;;5034669;28;39492;-77
2021/03/13 12:47:04;;;;;;;18.07;2.30;;;;;;;;;;5072989;27;37851;-74
2021/03/13 12:49:30;;;;;;;8.47;2.20;;;;;;;;;;5045133;28;39717;-76
2021/03/13 12:51:56;;;;;;;13.27;2.07;;;;;;;;;;5031986;28;39942;-72
2021/03/13 12:54:23;;;;;;;21.33;2.97;;;;;;;;;;5031836;28;38390;-74
2021/03/13 12:56:49;;;;;;;18.13;2.57;;;;;;;;;;5060388;28;36989;-74
2021/03/13 12:59:16;;;;;;;14.07;2.70;;;;;;;;;;5037745;28;40493;-73
2021/03/13 13:01:42;;;;;;;16.47;2.97;;;;;;;;;;5040489;28;38579;-75
2021/03/13 13:04:08;;;;;;;16.40;3.47;;;;;;;;;;5016296;28;38198;-74
2021/03/13 13:06:35;;;;;;;20.47;3.07;;;;;;;;;;5019096;28;36744;-77
2021/03/13 13:09:01;;;;;;;14.63;2.67;;;;;;;;;;5019490;28;40017;-74
2021/03/13 13:11:28;;;;;;;14.80;3.33;;;;;;;;;;5019930;28;47319;-75
2021/03/13 13:13:54;;;;;;;14.87;2.37;;;;;;;;;;5013599;28;39044;-76
2021/03/13 13:16:21;;;;;;;11.83;2.13;;;;;;;;;;5029018;28;39000;-75
2021/03/13 13:18:47;;;;;;;14.23;2.83;;;;;;;;;;5024902;28;39858;-76
2021/03/13 13:21:14;;;;;;;14.70;2.03;;;;;;;;;;5023703;28;39190;-76
2021/03/13 13:23:41;;;;;;;18.83;2.73;;;;;;;;;;5016827;28;39861;-75
2021/03/13 13:26:08;;;;;;;14.17;2.50;;;;;;;;;;5028753;28;37327;-75
2021/03/13 13:28:34;;;;;;;10.07;2.40;;;;;;;;;;5015512;28;40058;-74
2021/03/13 13:31:01;;;;;;;12.43;2.17;;;;;;;;;;5024738;28;39274;-76
2021/03/13 13:33:27;;;;;;;17.47;2.60;;;;;;;;;;5016427;28;46790;-75
2021/03/13 13:35:54;;;;;;;17.97;2.83;;;;;;;;;;5031281;28;37729;-75
2021/03/13 13:38:21;;;;;;;10.90;1.80;;;;;;;;;;5018421;28;40320;-75
2021/03/13 13:40:48;;;;;;;9.43;1.90;;;;;;;;;;5027007;28;39380;-75
2021/03/13 13:43:14;;;;;;;15.10;2.20;;;;;;;;;;5030513;28;38003;-75
2021/03/13 13:45:41;;;;;;;11.70;2.43;;;;;;;;;;5020297;28;36848;-76
2021/03/13 13:48:07;;;;;;;14.23;2.30;;;;;;;;;;5022427;28;39626;-75
2021/03/13 13:50:34;;;;;;;13.25;2.70;;;;;;;;;;5019420;28;38895;-75
2021/03/13 13:53:00;;;;;;;14.23;1.87;;;;;;;;;;5026405;28;38780;-76
2021/03/13 13:55:27;;;;;;;12.75;2.63;;;;;;;;;;5028751;28;47093;-76
2021/03/13 13:57:54;;;;;;;14.70;2.50;;;;;;;;;;5022513;28;39925;-76
2021/03/13 14:00:22;;;;;;;15.93;2.70;;;;;;;;;;5032104;28;38889;-76
2021/03/13 14:02:49;;;;;;;17.07;3.10;;;;;;;;;;5014467;28;38035;-75
2021/03/13 14:05:15;;;;;;;13.63;2.83;;;;;;;;;;5020582;28;36300;-76
2021/03/13 14:07:42;;;;;;;14.87;2.63;;;;;;;;;;5024663;28;40854;-75
2021/03/13 14:10:09;;;;;;;4.80;1.40;;;;;;;;;;5017874;28;39778;-74
2021/03/13 14:12:35;;;;;;;5.60;1.50;;;;;;;;;;5023607;28;38405;-75
2021/03/13 14:15:03;;;;;;;4.93;1.13;;;;;;;;;;5037852;28;36981;-76
2021/03/13 14:17:29;;;;;;;7.30;1.20;;;;;;;;;;5023157;28;37732;-77
2021/03/13 14:19:58;;;;;;;11.50;2.03;;;;;;;;;;5036384;28;38741;-76
2021/03/13 14:22:24;;;;;;;16.00;2.00;;;;;;;;;;5024549;28;38314;-77
2021/03/13 14:24:50;;;;;;;9.53;2.13;;;;;;;;;;5016595;28;37061;-76
2021/03/13 14:27:17;;;;;;;17.77;2.97;;;;;;;;;;5017182;28;39510;-75
2021/03/13 14:29:43;;;;;;;17.20;2.60;;;;;;;;;;5016682;28;38660;-76
2021/03/13 14:32:10;;;;;;;21.90;3.00;;;;;;;;;;5019577;28;39377;-76
2021/03/13 14:34:36;;;;;;;20.07;3.30;;;;;;;;;;5033812;28;37425;-76
2021/03/13 14:37:03;;;;;;;14.83;2.87;;;;;;;;;;5025444;28;39359;-76